sensor_id;sensor_type;location;lat;lon;timestamp;P1;durP1;ratioP1;P2;durP2;ratioP2
19219;SDS011;9744;49.364;7.484;2023-11-18T00:01:52;431.88;;;47.40;;
19219;SDS011;9744;49.364;7.484;2023-11-18T00:04:19;443.70;;;44.30;;
19219;SDS011;9744;49.364;7.484;2023-11-18T00:06:48;1277.93;;;79.53;;
19219;SDS011;9744;49.364;7.484;2023-11-18T00:09:16;346.90;;;38.17;;
19219;SDS011;9744;49.364;7.484;2023-11-18T00:11:43;561.13;;;47.60;;
19219;SDS011;9744;49.364;7.484;2023-11-18T00:14:12;1092.05;;;67.68;;
19219;SDS011;9744;49.364;7.484;2023-11-18T00:16:39;1049.85;;;65.80;;
19219;SDS011;9744;49.364;7.484;2023-11-18T00:23:00;1242.43;;;69.57;;
19219;SDS011;9744;49.364;7.484;2023-11-18T00:25:31;1555.57;;;84.10;;
19219;SDS011;9744;49.364;7.484;2023-11-18T00:28:00;1634.10;;;91.22;;
19219;SDS011;9744;49.364;7.484;2023-11-18T00:30:29;1537.63;;;87.97;;
19219;SDS011;9744;49.364;7.484;2023-11-18T00:32:57;1262.82;;;63.10;;
19219;SDS011;9744;49.364;7.484;2023-11-18T00:35:25;901.72;;;54.72;;
19219;SDS011;9744;49.364;7.484;2023-11-18T00:37:52;1141.53;;;63.67;;
19219;SDS011;9744;49.364;7.484;2023-11-18T00:40:21;832.85;;;53.42;;
19219;SDS011;9744;49.364;7.484;2023-11-18T00:42:48;888.42;;;58.58;;
19219;SDS011;9744;49.364;7.484;2023-11-18T00:45:15;533.28;;;41.72;;
19219;SDS011;9744;49.364;7.484;2023-11-18T00:47:44;508.20;;;42.75;;
19219;SDS011;9744;49.364;7.484;2023-11-18T00:50:12;684.22;;;47.88;;
19219;SDS011;9744;49.364;7.484;2023-11-18T00:52:39;567.88;;;42.65;;
19219;SDS011;9744;49.364;7.484;2023-11-18T00:55:07;633.72;;;45.58;;
19219;SDS011;9744;49.364;7.484;2023-11-18T00:57:36;436.10;;;34.50;;
19219;SDS011;9744;49.364;7.484;2023-11-18T01:00:05;1141.35;;;68.45;;
19219;SDS011;9744;49.364;7.484;2023-11-18T01:02:33;959.40;;;55.22;;
19219;SDS011;9744;49.364;7.484;2023-11-18T01:05:02;946.22;;;58.53;;
19219;SDS011;9744;49.364;7.484;2023-11-18T01:07:29;1061.75;;;61.17;;
19219;SDS011;9744;49.364;7.484;2023-11-18T01:09:56;535.90;;;40.25;;
19219;SDS011;9744;49.364;7.484;2023-11-18T01:12:23;688.67;;;44.60;;
19219;SDS011;9744;49.364;7.484;2023-11-18T01:14:51;852.72;;;52.13;;
19219;SDS011;9744;49.364;7.484;2023-11-18T01:17:18;1053.25;;;63.75;;
19219;SDS011;9744;49.364;7.484;2023-11-18T01:19:47;306.95;;;32.55;;
19219;SDS011;9744;49.364;7.484;2023-11-18T01:22:16;552.15;;;40.28;;
19219;SDS011;9744;49.364;7.484;2023-11-18T01:24:43;314.40;;;31.92;;
19219;SDS011;9744;49.364;7.484;2023-11-18T01:27:12;994.55;;;53.88;;
19219;SDS011;9744;49.364;7.484;2023-11-18T01:29:39;985.97;;;58.65;;
19219;SDS011;9744;49.364;7.484;2023-11-18T01:32:08;1152.70;;;58.63;;
19219;SDS011;9744;49.364;7.484;2023-11-18T01:34:37;1085.70;;;58.40;;
19219;SDS011;9744;49.364;7.484;2023-11-18T01:37:10;1236.63;;;63.22;;
19219;SDS011;9744;49.364;7.484;2023-11-18T01:39:40;803.38;;;50.33;;
19219;SDS011;9744;49.364;7.484;2023-11-18T01:42:07;760.75;;;45.40;;
19219;SDS011;9744;49.364;7.484;2023-11-18T01:44:34;1070.78;;;59.35;;
19219;SDS011;9744;49.364;7.484;2023-11-18T01:47:02;1115.78;;;58.47;;
19219;SDS011;9744;49.364;7.484;2023-11-18T01:49:31;1017.28;;;54.65;;
19219;SDS011;9744;49.364;7.484;2023-11-18T01:52:02;1162.30;;;60.15;;
19219;SDS011;9744;49.364;7.484;2023-11-18T01:54:33;953.63;;;52.03;;
19219;SDS011;9744;49.364;7.484;2023-11-18T01:57:02;798.92;;;44.55;;
19219;SDS011;9744;49.364;7.484;2023-11-18T01:59:31;1172.35;;;59.05;;
19219;SDS011;9744;49.364;7.484;2023-11-18T02:07:38;741.90;;;39.78;;
19219;SDS011;9744;49.364;7.484;2023-11-18T02:14:12;683.67;;;32.47;;
19219;SDS011;9744;49.364;7.484;2023-11-18T02:33:34;721.38;;;41.72;;
19219;SDS011;9744;49.364;7.484;2023-11-18T02:40:47;802.42;;;41.25;;
19219;SDS011;9744;49.364;7.484;2023-11-18T02:44:02;1101.43;;;60.40;;
19219;SDS011;9744;49.364;7.484;2023-11-18T02:46:56;970.75;;;51.75;;
19219;SDS011;9744;49.364;7.484;2023-11-18T02:50:01;901.67;;;52.80;;
19219;SDS011;9744;49.364;7.484;2023-11-18T02:53:06;925.65;;;46.22;;
19219;SDS011;9744;49.364;7.484;2023-11-18T02:56:01;595.97;;;32.75;;
19219;SDS011;9744;49.364;7.484;2023-11-18T03:23:40;1311.57;;;60.95;;
19219;SDS011;9744;49.364;7.484;2023-11-18T03:26:23;1204.95;;;59.97;;
19219;SDS011;9744;49.364;7.484;2023-11-18T03:29:06;1020.30;;;45.15;;
19219;SDS011;9744;49.364;7.484;2023-11-18T03:34:49;800.53;;;38.92;;
19219;SDS011;9744;49.364;7.484;2023-11-18T03:37:42;696.58;;;32.40;;
19219;SDS011;9744;49.364;7.484;2023-11-18T03:40:30;930.67;;;40.80;;
19219;SDS011;9744;49.364;7.484;2023-11-18T03:43:05;867.63;;;47.30;;
19219;SDS011;9744;49.364;7.484;2023-11-18T03:51:59;993.60;;;45.38;;
19219;SDS011;9744;49.364;7.484;2023-11-18T03:54:45;1115.40;;;50.13;;
19219;SDS011;9744;49.364;7.484;2023-11-18T04:04:43;907.92;;;41.22;;
19219;SDS011;9744;49.364;7.484;2023-11-18T04:07:25;920.40;;;42.40;;
19219;SDS011;9744;49.364;7.484;2023-11-18T04:09:58;968.67;;;44.42;;
19219;SDS011;9744;49.364;7.484;2023-11-18T04:12:36;831.72;;;33.20;;
19219;SDS011;9744;49.364;7.484;2023-11-18T04:15:14;930.75;;;40.22;;
19219;SDS011;9744;49.364;7.484;2023-11-18T04:17:57;882.75;;;40.25;;
19219;SDS011;9744;49.364;7.484;2023-11-18T04:20:31;826.08;;;37.50;;
19219;SDS011;9744;49.364;7.484;2023-11-18T04:23:15;818.85;;;38.47;;
19219;SDS011;9744;49.364;7.484;2023-11-18T04:26:02;726.08;;;35.40;;
19219;SDS011;9744;49.364;7.484;2023-11-18T04:28:46;959.60;;;45.38;;
19219;SDS011;9744;49.364;7.484;2023-11-18T04:31:24;836.30;;;41.42;;
19219;SDS011;9744;49.364;7.484;2023-11-18T04:34:03;902.75;;;45.65;;
19219;SDS011;9744;49.364;7.484;2023-11-18T04:36:43;876.00;;;37.90;;
19219;SDS011;9744;49.364;7.484;2023-11-18T04:39:48;1018.40;;;46.05;;
19219;SDS011;9744;49.364;7.484;2023-11-18T04:42:32;856.25;;;46.05;;
19219;SDS011;9744;49.364;7.484;2023-11-18T04:45:21;930.97;;;48.28;;
19219;SDS011;9744;49.364;7.484;2023-11-18T04:48:02;927.80;;;44.72;;
19219;SDS011;9744;49.364;7.484;2023-11-18T04:53:51;905.20;;;40.95;;
19219;SDS011;9744;49.364;7.484;2023-11-18T04:56:48;899.25;;;44.88;;
19219;SDS011;9744;49.364;7.484;2023-11-18T05:00:30;1014.28;;;52.63;;
19219;SDS011;9744;49.364;7.484;2023-11-18T05:03:06;1006.00;;;50.58;;
19219;SDS011;9744;49.364;7.484;2023-11-18T05:17:33;1272.78;;;61.50;;
19219;SDS011;9744;49.364;7.484;2023-11-18T05:20:11;1306.43;;;68.63;;
19219;SDS011;9744;49.364;7.484;2023-11-18T05:23:20;1156.78;;;60.03;;
19219;SDS011;9744;49.364;7.484;2023-11-18T05:26:14;1395.95;;;70.80;;
19219;SDS011;9744;49.364;7.484;2023-11-18T05:28:54;1136.10;;;63.05;;
19219;SDS011;9744;49.364;7.484;2023-11-18T05:31:59;1201.80;;;64.18;;
19219;SDS011;9744;49.364;7.484;2023-11-18T05:35:22;1039.10;;;55.42;;
19219;SDS011;9744;49.364;7.484;2023-11-18T05:42:50;1157.18;;;64.18;;
19219;SDS011;9744;49.364;7.484;2023-11-18T05:46:12;1181.57;;;68.82;;
19219;SDS011;9744;49.364;7.484;2023-11-18T05:53:07;987.42;;;58.92;;
19219;SDS011;9744;49.364;7.484;2023-11-18T05:59:58;1192.32;;;63.80;;
19219;SDS011;9744;49.364;7.484;2023-11-18T06:04:07;824.55;;;46.72;;
19219;SDS011;9744;49.364;7.484;2023-11-18T06:07:44;1110.13;;;62.08;;
19219;SDS011;9744;49.364;7.484;2023-11-18T06:11:00;1152.10;;;61.95;;
19219;SDS011;9744;49.364;7.484;2023-11-18T06:17:24;1331.85;;;86.68;;
19219;SDS011;9744;49.364;7.484;2023-11-18T06:20:30;1401.28;;;82.75;;
19219;SDS011;9744;49.364;7.484;2023-11-18T06:23:24;1290.20;;;75.55;;
19219;SDS011;9744;49.364;7.484;2023-11-18T06:28:56;1159.85;;;66.47;;
19219;SDS011;9744;49.364;7.484;2023-11-18T06:31:42;1363.40;;;76.22;;
19219;SDS011;9744;49.364;7.484;2023-11-18T06:34:42;1172.80;;;65.53;;
19219;SDS011;9744;49.364;7.484;2023-11-18T06:38:40;1194.78;;;73.45;;
19219;SDS011;9744;49.364;7.484;2023-11-18T06:42:13;1272.53;;;76.85;;
19219;SDS011;9744;49.364;7.484;2023-11-18T06:44:58;1356.82;;;81.28;;
19219;SDS011;9744;49.364;7.484;2023-11-18T07:01:52;1574.63;;;105.38;;
19219;SDS011;9744;49.364;7.484;2023-11-18T07:04:29;1179.57;;;69.50;;
19219;SDS011;9744;49.364;7.484;2023-11-18T07:10:33;827.47;;;56.70;;
19219;SDS011;9744;49.364;7.484;2023-11-18T07:16:25;251.32;;;33.47;;
19219;SDS011;9744;49.364;7.484;2023-11-18T07:19:09;607.50;;;44.08;;
19219;SDS011;9744;49.364;7.484;2023-11-18T07:22:02;223.30;;;32.20;;
19219;SDS011;9744;49.364;7.484;2023-11-18T07:24:49;736.67;;;56.03;;
19219;SDS011;9744;49.364;7.484;2023-11-18T07:27:28;141.23;;;31.40;;
19219;SDS011;9744;49.364;7.484;2023-11-18T07:30:08;174.35;;;32.08;;
19219;SDS011;9744;49.364;7.484;2023-11-18T07:36:22;127.28;;;31.02;;
19219;SDS011;9744;49.364;7.484;2023-11-18T07:39:08;189.50;;;33.83;;
19219;SDS011;9744;49.364;7.484;2023-11-18T07:42:05;122.25;;;28.30;;
19219;SDS011;9744;49.364;7.484;2023-11-18T07:44:42;117.40;;;26.58;;
19219;SDS011;9744;49.364;7.484;2023-11-18T08:14:02;99.90;;;27.52;;
19219;SDS011;9744;49.364;7.484;2023-11-18T08:48:42;51.10;;;17.73;;
19219;SDS011;9744;49.364;7.484;2023-11-18T08:56:11;61.25;;;19.10;;
19219;SDS011;9744;49.364;7.484;2023-11-18T08:59:22;66.93;;;20.52;;
19219;SDS011;9744;49.364;7.484;2023-11-18T09:02:45;59.85;;;19.80;;
19219;SDS011;9744;49.364;7.484;2023-11-18T09:13:39;42.35;;;16.00;;
19219;SDS011;9744;49.364;7.484;2023-11-18T09:16:34;41.60;;;16.23;;
19219;SDS011;9744;49.364;7.484;2023-11-18T09:28:11;42.85;;;14.82;;
19219;SDS011;9744;49.364;7.484;2023-11-18T09:38:59;29.75;;;12.95;;
19219;SDS011;9744;49.364;7.484;2023-11-18T09:42:42;35.65;;;13.05;;
19219;SDS011;9744;49.364;7.484;2023-11-18T09:45:24;28.58;;;13.23;;
19219;SDS011;9744;49.364;7.484;2023-11-18T09:48:04;27.58;;;12.85;;
19219;SDS011;9744;49.364;7.484;2023-11-18T09:50:54;29.73;;;12.70;;
19219;SDS011;9744;49.364;7.484;2023-11-18T09:53:49;23.58;;;11.13;;
19219;SDS011;9744;49.364;7.484;2023-11-18T10:00:06;30.83;;;11.38;;
19219;SDS011;9744;49.364;7.484;2023-11-18T10:02:56;31.35;;;11.20;;
19219;SDS011;9744;49.364;7.484;2023-11-18T10:05:30;24.10;;;12.00;;
19219;SDS011;9744;49.364;7.484;2023-11-18T10:08:36;22.58;;;11.18;;
19219;SDS011;9744;49.364;7.484;2023-11-18T10:11:26;25.05;;;11.18;;
19219;SDS011;9744;49.364;7.484;2023-11-18T10:14:04;23.67;;;11.40;;
19219;SDS011;9744;49.364;7.484;2023-11-18T10:16:51;30.73;;;10.98;;
19219;SDS011;9744;49.364;7.484;2023-11-18T10:19:52;28.30;;;12.18;;
19219;SDS011;9744;49.364;7.484;2023-11-18T10:23:11;27.13;;;12.70;;
19219;SDS011;9744;49.364;7.484;2023-11-18T10:29:44;26.75;;;12.13;;
19219;SDS011;9744;49.364;7.484;2023-11-18T10:41:43;25.05;;;11.52;;
19219;SDS011;9744;49.364;7.484;2023-11-18T10:45:06;28.75;;;11.85;;
19219;SDS011;9744;49.364;7.484;2023-11-18T10:51:26;22.00;;;11.18;;
19219;SDS011;9744;49.364;7.484;2023-11-18T10:54:30;25.27;;;11.48;;
19219;SDS011;9744;49.364;7.484;2023-11-18T11:46:06;22.42;;;9.85;;
19219;SDS011;9744;49.364;7.484;2023-11-18T12:12:31;18.23;;;9.02;;
19219;SDS011;9744;49.364;7.484;2023-11-18T12:20:49;16.70;;;8.43;;
19219;SDS011;9744;49.364;7.484;2023-11-18T12:23:23;17.50;;;8.05;;
19219;SDS011;9744;49.364;7.484;2023-11-18T12:25:53;12.25;;;8.10;;
19219;SDS011;9744;49.364;7.484;2023-11-18T12:28:26;18.33;;;8.93;;
19219;SDS011;9744;49.364;7.484;2023-11-18T12:30:56;15.63;;;8.45;;
19219;SDS011;9744;49.364;7.484;2023-11-18T13:24:20;13.07;;;5.75;;
19219;SDS011;9744;49.364;7.484;2023-11-18T14:06:49;19.08;;;5.57;;
19219;SDS011;9744;49.364;7.484;2023-11-18T14:09:36;11.32;;;5.10;;
19219;SDS011;9744;49.364;7.484;2023-11-18T14:12:58;13.75;;;5.50;;
19219;SDS011;9744;49.364;7.484;2023-11-18T14:15:49;15.38;;;6.82;;
19219;SDS011;9744;49.364;7.484;2023-11-18T14:18:42;19.98;;;6.70;;
19219;SDS011;9744;49.364;7.484;2023-11-18T14:21:21;14.13;;;7.15;;
19219;SDS011;9744;49.364;7.484;2023-11-18T14:24:16;21.88;;;7.13;;
19219;SDS011;9744;49.364;7.484;2023-11-18T14:26:56;10.65;;;6.00;;
19219;SDS011;9744;49.364;7.484;2023-11-18T14:29:42;14.48;;;7.65;;
19219;SDS011;9744;49.364;7.484;2023-11-18T14:32:19;18.33;;;7.25;;
19219;SDS011;9744;49.364;7.484;2023-11-18T14:35:07;17.70;;;9.25;;
19219;SDS011;9744;49.364;7.484;2023-11-18T14:37:59;13.07;;;7.97;;
19219;SDS011;9744;49.364;7.484;2023-11-18T14:44:03;22.52;;;10.55;;
19219;SDS011;9744;49.364;7.484;2023-11-18T14:46:53;26.85;;;12.38;;
19219;SDS011;9744;49.364;7.484;2023-11-18T14:50:00;25.65;;;13.40;;
19219;SDS011;9744;49.364;7.484;2023-11-18T14:52:57;42.22;;;15.75;;
19219;SDS011;9744;49.364;7.484;2023-11-18T14:56:12;34.60;;;13.85;;
19219;SDS011;9744;49.364;7.484;2023-11-18T14:59:42;34.63;;;14.20;;
19219;SDS011;9744;49.364;7.484;2023-11-18T15:02:28;25.30;;;12.23;;
19219;SDS011;9744;49.364;7.484;2023-11-18T15:05:35;20.23;;;10.73;;
19219;SDS011;9744;49.364;7.484;2023-11-18T15:08:15;24.88;;;9.80;;
19219;SDS011;9744;49.364;7.484;2023-11-18T15:11:10;23.85;;;10.63;;
19219;SDS011;9744;49.364;7.484;2023-11-18T15:13:42;20.48;;;9.38;;
19219;SDS011;9744;49.364;7.484;2023-11-18T15:16:21;18.35;;;9.80;;
19219;SDS011;9744;49.364;7.484;2023-11-18T15:18:56;19.23;;;9.73;;
19219;SDS011;9744;49.364;7.484;2023-11-18T15:22:03;14.35;;;8.90;;
19219;SDS011;9744;49.364;7.484;2023-11-18T15:25:12;17.13;;;9.23;;
19219;SDS011;9744;49.364;7.484;2023-11-18T15:28:19;18.52;;;9.13;;
19219;SDS011;9744;49.364;7.484;2023-11-18T15:31:20;17.42;;;9.32;;
19219;SDS011;9744;49.364;7.484;2023-11-18T15:33:54;20.17;;;10.50;;
19219;SDS011;9744;49.364;7.484;2023-11-18T15:36:29;21.02;;;9.63;;
19219;SDS011;9744;49.364;7.484;2023-11-18T15:39:36;20.65;;;8.52;;
19219;SDS011;9744;49.364;7.484;2023-11-18T15:42:17;16.33;;;7.65;;
19219;SDS011;9744;49.364;7.484;2023-11-18T15:45:41;23.85;;;6.10;;
19219;SDS011;9744;49.364;7.484;2023-11-18T15:48:25;18.35;;;7.57;;
19219;SDS011;9744;49.364;7.484;2023-11-18T15:51:16;13.45;;;6.03;;
19219;SDS011;9744;49.364;7.484;2023-11-18T15:53:56;14.25;;;6.43;;
19219;SDS011;9744;49.364;7.484;2023-11-18T15:56:34;16.48;;;5.70;;
19219;SDS011;9744;49.364;7.484;2023-11-18T15:59:08;17.90;;;6.55;;
19219;SDS011;9744;49.364;7.484;2023-11-18T16:01:54;20.15;;;6.22;;
19219;SDS011;9744;49.364;7.484;2023-11-18T16:04:58;13.07;;;7.65;;
19219;SDS011;9744;49.364;7.484;2023-11-18T16:07:58;23.23;;;7.28;;
19219;SDS011;9744;49.364;7.484;2023-11-18T16:10:34;23.00;;;8.52;;
19219;SDS011;9744;49.364;7.484;2023-11-18T16:13:07;19.83;;;8.90;;
19219;SDS011;9744;49.364;7.484;2023-11-18T16:19:49;27.85;;;11.05;;
19219;SDS011;9744;49.364;7.484;2023-11-18T16:22:16;19.42;;;10.68;;
19219;SDS011;9744;49.364;7.484;2023-11-18T16:24:45;20.20;;;10.95;;
19219;SDS011;9744;49.364;7.484;2023-11-18T16:27:15;19.40;;;11.23;;
19219;SDS011;9744;49.364;7.484;2023-11-18T16:29:43;23.50;;;12.05;;
19219;SDS011;9744;49.364;7.484;2023-11-18T16:32:11;26.85;;;12.07;;
19219;SDS011;9744;49.364;7.484;2023-11-18T16:34:38;24.50;;;14.13;;
19219;SDS011;9744;49.364;7.484;2023-11-18T16:37:08;34.28;;;14.25;;
19219;SDS011;9744;49.364;7.484;2023-11-18T16:39:37;57.33;;;18.95;;
19219;SDS011;9744;49.364;7.484;2023-11-18T16:42:04;38.75;;;16.80;;
19219;SDS011;9744;49.364;7.484;2023-11-18T16:44:33;77.53;;;21.40;;
19219;SDS011;9744;49.364;7.484;2023-11-18T16:47:01;41.70;;;18.10;;
19219;SDS011;9744;49.364;7.484;2023-11-18T16:49:30;51.63;;;21.77;;
19219;SDS011;9744;49.364;7.484;2023-11-18T16:51:58;41.70;;;17.98;;
19219;SDS011;9744;49.364;7.484;2023-11-18T16:54:27;98.65;;;20.77;;
19219;SDS011;9744;49.364;7.484;2023-11-18T16:56:54;30.00;;;16.42;;
19219;SDS011;9744;49.364;7.484;2023-11-18T17:02:59;35.30;;;16.33;;
19219;SDS011;9744;49.364;7.484;2023-11-18T17:05:27;37.85;;;17.45;;
19219;SDS011;9744;49.364;7.484;2023-11-18T17:07:55;31.25;;;15.98;;
19219;SDS011;9744;49.364;7.484;2023-11-18T17:10:24;73.07;;;19.08;;
19219;SDS011;9744;49.364;7.484;2023-11-18T17:16:58;59.65;;;20.08;;
19219;SDS011;9744;49.364;7.484;2023-11-18T17:19:26;203.25;;;26.23;;
19219;SDS011;9744;49.364;7.484;2023-11-18T17:22:10;310.23;;;32.50;;
19219;SDS011;9744;49.364;7.484;2023-11-18T17:24:38;45.95;;;19.45;;
19219;SDS011;9744;49.364;7.484;2023-11-18T17:27:11;134.18;;;21.33;;
19219;SDS011;9744;49.364;7.484;2023-11-18T17:29:40;49.92;;;18.90;;
19219;SDS011;9744;49.364;7.484;2023-11-18T17:32:11;47.33;;;17.70;;
19219;SDS011;9744;49.364;7.484;2023-11-18T17:34:39;45.42;;;16.63;;
19219;SDS011;9744;49.364;7.484;2023-11-18T17:37:08;32.90;;;15.77;;
19219;SDS011;9744;49.364;7.484;2023-11-18T17:39:37;36.05;;;16.00;;
19219;SDS011;9744;49.364;7.484;2023-11-18T17:42:11;29.77;;;14.80;;
19219;SDS011;9744;49.364;7.484;2023-11-18T17:44:40;76.70;;;17.83;;
19219;SDS011;9744;49.364;7.484;2023-11-18T17:47:08;31.60;;;14.52;;
19219;SDS011;9744;49.364;7.484;2023-11-18T17:53:39;27.48;;;13.95;;
19219;SDS011;9744;49.364;7.484;2023-11-18T17:56:07;32.10;;;13.07;;
19219;SDS011;9744;49.364;7.484;2023-11-18T17:58:37;25.88;;;12.77;;
19219;SDS011;9744;49.364;7.484;2023-11-18T18:01:13;22.60;;;11.18;;
19219;SDS011;9744;49.364;7.484;2023-11-18T18:03:42;33.22;;;11.75;;
19219;SDS011;9744;49.364;7.484;2023-11-18T18:06:11;21.65;;;11.00;;
19219;SDS011;9744;49.364;7.484;2023-11-18T18:08:39;25.73;;;11.05;;
19219;SDS011;9744;49.364;7.484;2023-11-18T18:14:40;21.38;;;9.20;;
19219;SDS011;9744;49.364;7.484;2023-11-18T18:17:08;19.30;;;9.32;;
19219;SDS011;9744;49.364;7.484;2023-11-18T18:19:36;22.35;;;9.35;;
19219;SDS011;9744;49.364;7.484;2023-11-18T18:22:10;20.90;;;9.05;;
19219;SDS011;9744;49.364;7.484;2023-11-18T18:24:38;21.88;;;9.38;;
19219;SDS011;9744;49.364;7.484;2023-11-18T18:27:08;150.75;;;14.73;;
19219;SDS011;9744;49.364;7.484;2023-11-18T18:29:37;17.45;;;9.40;;
19219;SDS011;9744;49.364;7.484;2023-11-18T18:32:12;17.92;;;8.45;;
19219;SDS011;9744;49.364;7.484;2023-11-18T18:37:57;78.70;;;12.43;;
19219;SDS011;9744;49.364;7.484;2023-11-18T18:40:28;253.13;;;19.85;;
19219;SDS011;9744;49.364;7.484;2023-11-18T18:46:58;278.98;;;21.23;;
19219;SDS011;9744;49.364;7.484;2023-11-18T18:49:28;120.85;;;13.57;;
19219;SDS011;9744;49.364;7.484;2023-11-18T18:58:45;18.15;;;10.70;;
19219;SDS011;9744;49.364;7.484;2023-11-18T19:01:13;33.45;;;11.10;;
19219;SDS011;9744;49.364;7.484;2023-11-18T19:03:41;322.17;;;23.63;;
19219;SDS011;9744;49.364;7.484;2023-11-18T19:06:11;15.35;;;10.38;;
19219;SDS011;9744;49.364;7.484;2023-11-18T19:08:39;21.27;;;10.63;;
19219;SDS011;9744;49.364;7.484;2023-11-18T19:11:07;71.57;;;12.98;;
19219;SDS011;9744;49.364;7.484;2023-11-18T19:13:35;20.48;;;10.88;;
19219;SDS011;9744;49.364;7.484;2023-11-18T19:16:02;26.15;;;10.60;;
19219;SDS011;9744;49.364;7.484;2023-11-18T19:18:30;25.77;;;10.65;;
19219;SDS011;9744;49.364;7.484;2023-11-18T19:20:57;15.90;;;10.13;;
19219;SDS011;9744;49.364;7.484;2023-11-18T19:23:26;22.55;;;10.65;;
19219;SDS011;9744;49.364;7.484;2023-11-18T19:25:53;26.30;;;10.10;;
19219;SDS011;9744;49.364;7.484;2023-11-18T19:28:21;16.60;;;10.60;;
19219;SDS011;9744;49.364;7.484;2023-11-18T19:30:48;16.42;;;10.10;;
19219;SDS011;9744;49.364;7.484;2023-11-18T19:33:15;18.73;;;9.73;;
19219;SDS011;9744;49.364;7.484;2023-11-18T19:35:43;21.88;;;9.75;;
19219;SDS011;9744;49.364;7.484;2023-11-18T19:38:10;21.77;;;10.70;;
19219;SDS011;9744;49.364;7.484;2023-11-18T19:44:41;19.92;;;12.25;;
19219;SDS011;9744;49.364;7.484;2023-11-18T19:47:09;30.58;;;14.35;;
19219;SDS011;9744;49.364;7.484;2023-11-18T19:49:38;25.27;;;14.98;;
19219;SDS011;9744;49.364;7.484;2023-11-18T19:52:06;24.27;;;13.60;;
19219;SDS011;9744;49.364;7.484;2023-11-18T19:54:34;21.92;;;13.88;;
19219;SDS011;9744;49.364;7.484;2023-11-18T19:57:03;21.98;;;14.10;;
19219;SDS011;9744;49.364;7.484;2023-11-18T19:59:32;25.30;;;14.52;;
19219;SDS011;9744;49.364;7.484;2023-11-18T20:02:01;28.08;;;15.05;;
19219;SDS011;9744;49.364;7.484;2023-11-18T20:04:29;21.95;;;14.20;;
19219;SDS011;9744;49.364;7.484;2023-11-18T20:06:56;26.00;;;13.05;;
19219;SDS011;9744;49.364;7.484;2023-11-18T20:13:19;25.83;;;14.30;;
19219;SDS011;9744;49.364;7.484;2023-11-18T20:15:48;24.88;;;12.18;;
19219;SDS011;9744;49.364;7.484;2023-11-18T20:23:05;19.55;;;11.18;;
19219;SDS011;9744;49.364;7.484;2023-11-18T20:25:34;19.35;;;10.68;;
19219;SDS011;9744;49.364;7.484;2023-11-18T20:32:04;17.10;;;10.43;;
19219;SDS011;9744;49.364;7.484;2023-11-18T20:34:33;15.23;;;10.02;;
19219;SDS011;9744;49.364;7.484;2023-11-18T20:37:01;15.32;;;9.85;;
19219;SDS011;9744;49.364;7.484;2023-11-18T20:39:34;18.58;;;9.05;;
19219;SDS011;9744;49.364;7.484;2023-11-18T20:42:10;11.40;;;8.02;;
19219;SDS011;9744;49.364;7.484;2023-11-18T20:44:39;14.50;;;8.32;;
19219;SDS011;9744;49.364;7.484;2023-11-18T20:47:11;18.30;;;8.52;;
19219;SDS011;9744;49.364;7.484;2023-11-18T20:49:38;16.73;;;9.02;;
19219;SDS011;9744;49.364;7.484;2023-11-18T20:52:06;15.73;;;10.15;;
19219;SDS011;9744;49.364;7.484;2023-11-18T20:54:36;17.75;;;9.38;;
19219;SDS011;9744;49.364;7.484;2023-11-18T20:57:04;16.70;;;9.45;;
19219;SDS011;9744;49.364;7.484;2023-11-18T20:59:32;26.13;;;9.90;;
19219;SDS011;9744;49.364;7.484;2023-11-18T21:02:00;101.47;;;12.60;;
19219;SDS011;9744;49.364;7.484;2023-11-18T21:04:28;16.23;;;9.48;;
19219;SDS011;9744;49.364;7.484;2023-11-18T21:06:57;23.65;;;9.50;;
19219;SDS011;9744;49.364;7.484;2023-11-18T21:09:24;13.98;;;8.38;;
19219;SDS011;9744;49.364;7.484;2023-11-18T21:11:54;16.08;;;9.07;;
19219;SDS011;9744;49.364;7.484;2023-11-18T21:14:24;16.95;;;8.88;;
19219;SDS011;9744;49.364;7.484;2023-11-18T21:16:53;16.52;;;8.75;;
19219;SDS011;9744;49.364;7.484;2023-11-18T21:19:22;18.60;;;7.47;;
19219;SDS011;9744;49.364;7.484;2023-11-18T21:21:52;19.00;;;10.10;;
19219;SDS011;9744;49.364;7.484;2023-11-18T21:28:18;11.85;;;8.55;;
19219;SDS011;9744;49.364;7.484;2023-11-18T21:30:46;24.00;;;8.32;;
19219;SDS011;9744;49.364;7.484;2023-11-18T21:33:15;11.57;;;7.63;;
19219;SDS011;9744;49.364;7.484;2023-11-18T21:35:42;13.25;;;7.78;;
19219;SDS011;9744;49.364;7.484;2023-11-18T21:38:10;51.47;;;8.68;;
19219;SDS011;9744;49.364;7.484;2023-11-18T21:40:38;158.30;;;12.48;;
19219;SDS011;9744;49.364;7.484;2023-11-18T21:43:07;43.13;;;9.75;;
19219;SDS011;9744;49.364;7.484;2023-11-18T21:49:38;425.38;;;24.83;;
19219;SDS011;9744;49.364;7.484;2023-11-18T21:52:10;26.63;;;7.97;;
19219;SDS011;9744;49.364;7.484;2023-11-18T21:54:42;11.32;;;6.97;;
19219;SDS011;9744;49.364;7.484;2023-11-18T21:57:14;15.07;;;7.53;;
19219;SDS011;9744;49.364;7.484;2023-11-18T21:59:43;10.88;;;7.10;;
19219;SDS011;9744;49.364;7.484;2023-11-18T22:06:13;105.78;;;9.82;;
19219;SDS011;9744;49.364;7.484;2023-11-18T22:08:43;93.30;;;9.77;;
19219;SDS011;9744;49.364;7.484;2023-11-18T22:11:11;331.90;;;19.50;;
19219;SDS011;9744;49.364;7.484;2023-11-18T22:13:46;60.63;;;8.85;;
19219;SDS011;9744;49.364;7.484;2023-11-18T22:16:16;131.02;;;10.93;;
19219;SDS011;9744;49.364;7.484;2023-11-18T22:18:45;24.85;;;8.00;;
19219;SDS011;9744;49.364;7.484;2023-11-18T22:21:14;37.10;;;8.23;;
19219;SDS011;9744;49.364;7.484;2023-11-18T22:23:41;10.73;;;6.40;;
19219;SDS011;9744;49.364;7.484;2023-11-18T22:26:09;12.18;;;7.85;;
19219;SDS011;9744;49.364;7.484;2023-11-18T22:28:37;15.27;;;7.88;;
19219;SDS011;9744;49.364;7.484;2023-11-18T22:31:05;99.20;;;13.13;;
19219;SDS011;9744;49.364;7.484;2023-11-18T22:33:33;16.23;;;9.13;;
19219;SDS011;9744;49.364;7.484;2023-11-18T22:36:01;11.65;;;8.13;;
19219;SDS011;9744;49.364;7.484;2023-11-18T22:38:33;12.82;;;8.07;;
19219;SDS011;9744;49.364;7.484;2023-11-18T22:41:03;11.73;;;7.93;;
19219;SDS011;9744;49.364;7.484;2023-11-18T22:43:35;19.00;;;8.93;;
19219;SDS011;9744;49.364;7.484;2023-11-18T22:46:03;11.50;;;8.43;;
19219;SDS011;9744;49.364;7.484;2023-11-18T22:48:31;13.07;;;8.60;;
19219;SDS011;9744;49.364;7.484;2023-11-18T22:51:02;15.85;;;9.63;;
19219;SDS011;9744;49.364;7.484;2023-11-18T22:53:31;61.05;;;12.48;;
19219;SDS011;9744;49.364;7.484;2023-11-18T22:56:00;411.58;;;25.63;;
19219;SDS011;9744;49.364;7.484;2023-11-18T22:58:30;157.65;;;14.05;;
19219;SDS011;9744;49.364;7.484;2023-11-18T23:00:58;688.45;;;40.65;;
19219;SDS011;9744;49.364;7.484;2023-11-18T23:03:28;549.58;;;34.90;;
19219;SDS011;9744;49.364;7.484;2023-11-18T23:08:55;411.40;;;22.70;;
19219;SDS011;9744;49.364;7.484;2023-11-18T23:11:25;399.52;;;22.30;;
19219;SDS011;9744;49.364;7.484;2023-11-18T23:13:53;476.98;;;25.00;;
19219;SDS011;9744;49.364;7.484;2023-11-18T23:16:26;151.43;;;12.40;;
19219;SDS011;9744;49.364;7.484;2023-11-18T23:19:02;604.13;;;30.30;;
19219;SDS011;9744;49.364;7.484;2023-11-18T23:21:32;573.20;;;29.45;;
19219;SDS011;9744;49.364;7.484;2023-11-18T23:27:52;219.73;;;15.48;;
19219;SDS011;9744;49.364;7.484;2023-11-18T23:30:20;192.77;;;15.43;;
19219;SDS011;9744;49.364;7.484;2023-11-18T23:32:47;67.13;;;9.35;;
19219;SDS011;9744;49.364;7.484;2023-11-18T23:35:15;85.25;;;9.25;;
19219;SDS011;9744;49.364;7.484;2023-11-18T23:37:43;7.47;;;5.82;;
19219;SDS011;9744;49.364;7.484;2023-11-18T23:40:12;96.68;;;8.65;;
19219;SDS011;9744;49.364;7.484;2023-11-18T23:42:40;43.33;;;9.88;;